CheckWX is a tool to help pilots better visualize weather data.  It is not intended as a substitute for an official pre-flight weather briefing.

07:40:04 UTC

KTXK TAF
Texarkana Regional-Webb Field Airport
Texarkana, Arkansas, USA
KTXK 210520Z 2106/2206 19013G22KT P6SM SCT035 OVC150 FM210700 22015G24KT 3SM TSRA BKN007 OVC015CB TEMPO 2109/2113 VRB20G30KT 1SM +TSRA OVC015CB FM211500 32010KT P6SM FEW025 BKN250 FM212000 32010KT P6SM FEW250 FM212300 30005KT P6SM SKC

Oct-21@
06:00 UTC

Oct-21 @ 06:00 UTC

Oct-21@
07:00 UTC

Oct-21 @ 07:00 UTC

KTXK 210520Z 2106/2206 19013G22KT P6SM SCT035 OVC150

Expired

Wind
  • 190° at 13 KTS
  • {Gusting to 22 KTS
Cloud Levels
  • Scattered at 3,500' AGL
  • Overcast at 15,000' AGL

Oct-21@
07:00 UTC

Oct-21 @ 07:00 UTC

Oct-21@
15:00 UTC

Oct-21 @ 15:00 UTC

FM210700 22015G24KT 3SM TSRA BKN007 OVC015CB

From

From Standard forecast or significant change

Wind
  • 220° at 15 KTS
  • {Gusting to 24 KTS
Conditions
Thunderstorm, Rain
Cloud Levels
  • Broken at 700' AGL
  • Overcast at 1,500' AGL

Oct-21@
09:00 UTC

Oct-21 @ 09:00 UTC

Oct-21@
13:00 UTC

Oct-21 @ 13:00 UTC

TEMPO 2109/2113 VRB20G30KT 1SM +TSRA OVC015CB

Temporary

Temporary Changes expected for less than half the time period

Wind
  • Variable at 20 KTS
  • {Gusting to 30 KTS
Conditions
Heavy Thunderstorm, Heavy Rain
Cloud Levels
  • Overcast at 1,500' AGL

Oct-21@
15:00 UTC

Oct-21 @ 15:00 UTC

Oct-21@
20:00 UTC

Oct-21 @ 20:00 UTC

FM211500 32010KT P6SM FEW025 BKN250

From

From Standard forecast or significant change

Wind
  • 320° at 10 KTS
Cloud Levels
  • Few at 2,500' AGL
  • Broken at 25,000' AGL

Oct-21@
20:00 UTC

Oct-21 @ 20:00 UTC

Oct-21@
23:00 UTC

Oct-21 @ 23:00 UTC

FM212000 32010KT P6SM FEW250

From

From Standard forecast or significant change

Wind
  • 320° at 10 KTS
Cloud Levels
  • Few at 25,000' AGL

Oct-21@
23:00 UTC

Oct-21 @ 23:00 UTC

Oct-22@
06:00 UTC

Oct-22 @ 06:00 UTC

FM212300 30005KT P6SM SKC

From

From Standard forecast or significant change

Wind
  • 300° at 5 KTS
Cloud Levels
  • Clear skies